sensor_id;sensor_type;location;lat;lon;timestamp;pressure;altitude;pressure_sealevel;temperature;humidity
7182;BME280;3632;42.724;23.298;2024-02-26T00:01:12;94959.44;;;8.94;100.00
7182;BME280;3632;42.724;23.298;2024-02-26T00:03:39;94595.44;;;6.31;100.00
7182;BME280;3632;42.724;23.298;2024-02-26T00:06:07;94945.13;;;8.82;100.00
7182;BME280;3632;42.724;23.298;2024-02-26T00:08:34;94951.56;;;8.97;100.00
7182;BME280;3632;42.724;23.298;2024-02-26T00:11:01;94956.13;;;9.25;100.00
7182;BME280;3632;42.724;23.298;2024-02-26T00:13:27;94748.97;;;8.13;100.00
7182;BME280;3632;42.724;23.298;2024-02-26T00:15:54;94951.88;;;9.57;100.00
7182;BME280;3632;42.724;23.298;2024-02-26T00:18:22;94945.34;;;9.64;100.00
7182;BME280;3632;42.724;23.298;2024-02-26T00:20:49;94748.66;;;8.49;100.00
7182;BME280;3632;42.724;23.298;2024-02-26T00:23:15;94950.38;;;9.55;100.00
7182;BME280;3632;42.724;23.298;2024-02-26T00:25:42;94946.44;;;9.19;100.00
7182;BME280;3632;42.724;23.298;2024-02-26T00:28:10;94946.34;;;9.21;100.00
7182;BME280;3632;42.724;23.298;2024-02-26T00:30:38;94937.59;;;8.91;100.00
7182;BME280;3632;42.724;23.298;2024-02-26T00:33:05;94942.03;;;8.67;100.00
7182;BME280;3632;42.724;23.298;2024-02-26T00:35:33;94932.69;;;8.56;100.00
7182;BME280;3632;42.724;23.298;2024-02-26T00:38:00;94942.25;;;8.42;100.00
7182;BME280;3632;42.724;23.298;2024-02-26T00:40:28;94941.84;;;8.24;100.00
7182;BME280;3632;42.724;23.298;2024-02-26T00:42:55;94880.13;;;8.12;100.00
7182;BME280;3632;42.724;23.298;2024-02-26T00:45:22;94825.34;;;8.10;100.00
7182;BME280;3632;42.724;23.298;2024-02-26T00:47:48;94890.41;;;8.78;100.00
7182;BME280;3632;42.724;23.298;2024-02-26T00:50:15;94914.66;;;9.25;100.00
7182;BME280;3632;42.724;23.298;2024-02-26T00:52:43;94763.22;;;8.47;100.00
7182;BME280;3632;42.724;23.298;2024-02-26T00:55:10;94912.66;;;8.85;100.00
7182;BME280;3632;42.724;23.298;2024-02-26T00:57:36;94907.72;;;8.61;100.00
7182;BME280;3632;42.724;23.298;2024-02-26T01:00:05;94903.34;;;8.63;100.00
7182;BME280;3632;42.724;23.298;2024-02-26T01:02:34;94907.16;;;8.58;100.00
7182;BME280;3632;42.724;23.298;2024-02-26T01:05:00;94905.44;;;8.69;100.00
7182;BME280;3632;42.724;23.298;2024-02-26T01:07:28;94909.75;;;9.01;100.00
7182;BME280;3632;42.724;23.298;2024-02-26T01:10:00;94905.06;;;9.17;100.00
7182;BME280;3632;42.724;23.298;2024-02-26T01:12:26;94879.09;;;9.13;100.00
7182;BME280;3632;42.724;23.298;2024-02-26T01:14:53;94902.91;;;9.44;100.00
7182;BME280;3632;42.724;23.298;2024-02-26T01:17:20;94865.19;;;9.29;100.00
7182;BME280;3632;42.724;23.298;2024-02-26T01:19:46;94902.91;;;9.65;100.00
7182;BME280;3632;42.724;23.298;2024-02-26T01:22:13;94897.56;;;9.47;100.00
7182;BME280;3632;42.724;23.298;2024-02-26T01:24:40;94901.19;;;9.66;100.00
7182;BME280;3632;42.724;23.298;2024-02-26T01:27:08;94894.03;;;9.59;100.00
7182;BME280;3632;42.724;23.298;2024-02-26T01:29:35;94900.63;;;9.30;100.00
7182;BME280;3632;42.724;23.298;2024-02-26T01:32:02;94898.34;;;8.84;100.00
7182;BME280;3632;42.724;23.298;2024-02-26T01:34:30;94861.09;;;8.62;100.00
7182;BME280;3632;42.724;23.298;2024-02-26T01:36:57;94889.50;;;9.10;100.00
7182;BME280;3632;42.724;23.298;2024-02-26T01:39:23;94909.41;;;8.94;100.00
7182;BME280;3632;42.724;23.298;2024-02-26T01:41:50;94893.16;;;8.75;100.00
7182;BME280;3632;42.724;23.298;2024-02-26T01:44:19;94891.22;;;8.78;100.00
7182;BME280;3632;42.724;23.298;2024-02-26T01:46:45;94848.53;;;8.39;100.00
7182;BME280;3632;42.724;23.298;2024-02-26T01:49:12;94884.81;;;8.95;100.00
7182;BME280;3632;42.724;23.298;2024-02-26T01:51:40;94888.03;;;8.97;100.00
7182;BME280;3632;42.724;23.298;2024-02-26T01:54:08;94888.31;;;8.71;100.00
7182;BME280;3632;42.724;23.298;2024-02-26T01:56:36;94884.72;;;9.17;100.00
7182;BME280;3632;42.724;23.298;2024-02-26T01:59:05;94820.94;;;8.56;100.00
7182;BME280;3632;42.724;23.298;2024-02-26T02:01:35;94889.34;;;8.80;100.00
7182;BME280;3632;42.724;23.298;2024-02-26T02:04:02;94881.97;;;9.09;100.00
7182;BME280;3632;42.724;23.298;2024-02-26T02:06:29;94888.13;;;9.38;100.00
7182;BME280;3632;42.724;23.298;2024-02-26T02:08:56;94888.09;;;9.49;100.00
7182;BME280;3632;42.724;23.298;2024-02-26T02:11:23;94881.63;;;9.66;100.00
7182;BME280;3632;42.724;23.298;2024-02-26T02:13:50;94871.94;;;9.60;100.00
7182;BME280;3632;42.724;23.298;2024-02-26T02:16:17;94875.25;;;9.72;100.00
7182;BME280;3632;42.724;23.298;2024-02-26T02:18:45;94874.00;;;9.87;100.00
7182;BME280;3632;42.724;23.298;2024-02-26T02:21:13;94865.66;;;9.85;100.00
7182;BME280;3632;42.724;23.298;2024-02-26T02:23:40;94685.91;;;8.72;100.00
7182;BME280;3632;42.724;23.298;2024-02-26T02:26:11;94873.16;;;10.07;100.00
7182;BME280;3632;42.724;23.298;2024-02-26T02:28:39;94865.88;;;9.93;100.00
7182;BME280;3632;42.724;23.298;2024-02-26T02:31:06;94852.09;;;9.75;100.00
7182;BME280;3632;42.724;23.298;2024-02-26T02:33:34;94882.22;;;9.38;100.00
7182;BME280;3632;42.724;23.298;2024-02-26T02:36:00;94876.97;;;9.50;100.00
7182;BME280;3632;42.724;23.298;2024-02-26T02:38:28;94870.03;;;9.73;100.00
7182;BME280;3632;42.724;23.298;2024-02-26T02:40:57;94877.66;;;9.73;100.00
7182;BME280;3632;42.724;23.298;2024-02-26T02:43:23;94868.97;;;9.55;100.00
7182;BME280;3632;42.724;23.298;2024-02-26T02:45:51;94880.91;;;9.54;100.00
7182;BME280;3632;42.724;23.298;2024-02-26T02:48:18;94876.50;;;8.93;100.00
7182;BME280;3632;42.724;23.298;2024-02-26T02:50:44;94885.47;;;9.08;100.00
7182;BME280;3632;42.724;23.298;2024-02-26T02:53:11;94803.25;;;8.55;100.00
7182;BME280;3632;42.724;23.298;2024-02-26T02:55:39;94886.91;;;8.90;100.00
7182;BME280;3632;42.724;23.298;2024-02-26T02:58:06;94890.47;;;8.87;100.00
7182;BME280;3632;42.724;23.298;2024-02-26T03:00:33;94894.53;;;8.79;100.00
7182;BME280;3632;42.724;23.298;2024-02-26T03:02:59;94822.69;;;8.22;100.00
7182;BME280;3632;42.724;23.298;2024-02-26T03:05:26;94893.81;;;8.88;100.00
7182;BME280;3632;42.724;23.298;2024-02-26T03:07:53;94895.56;;;8.87;100.00
7182;BME280;3632;42.724;23.298;2024-02-26T03:10:19;94823.75;;;8.31;100.00
7182;BME280;3632;42.724;23.298;2024-02-26T03:12:47;94903.31;;;8.75;100.00
7182;BME280;3632;42.724;23.298;2024-02-26T03:15:14;94887.75;;;8.68;100.00
7182;BME280;3632;42.724;23.298;2024-02-26T03:17:41;94887.19;;;8.64;100.00
7182;BME280;3632;42.724;23.298;2024-02-26T03:20:09;94896.66;;;8.74;100.00
7182;BME280;3632;42.724;23.298;2024-02-26T03:22:38;94882.00;;;8.55;100.00
7182;BME280;3632;42.724;23.298;2024-02-26T03:25:05;94886.50;;;8.40;100.00
7182;BME280;3632;42.724;23.298;2024-02-26T03:27:32;94889.03;;;8.40;100.00
7182;BME280;3632;42.724;23.298;2024-02-26T03:30:00;94876.81;;;8.45;100.00
7182;BME280;3632;42.724;23.298;2024-02-26T03:32:27;94877.25;;;8.50;100.00
7182;BME280;3632;42.724;23.298;2024-02-26T03:34:53;94842.03;;;8.68;100.00
7182;BME280;3632;42.724;23.298;2024-02-26T03:37:21;94870.91;;;9.10;100.00
7182;BME280;3632;42.724;23.298;2024-02-26T03:39:48;94863.28;;;9.10;100.00
7182;BME280;3632;42.724;23.298;2024-02-26T03:42:14;94863.81;;;9.25;100.00
7182;BME280;3632;42.724;23.298;2024-02-26T03:44:41;94795.13;;;8.72;100.00
7182;BME280;3632;42.724;23.298;2024-02-26T03:47:09;94874.16;;;9.33;100.00
7182;BME280;3632;42.724;23.298;2024-02-26T03:49:36;94870.63;;;9.24;100.00
7182;BME280;3632;42.724;23.298;2024-02-26T03:52:03;94767.59;;;8.45;100.00
7182;BME280;3632;42.724;23.298;2024-02-26T03:54:30;94865.88;;;8.99;100.00
7182;BME280;3632;42.724;23.298;2024-02-26T03:56:57;94866.06;;;8.96;100.00
7182;BME280;3632;42.724;23.298;2024-02-26T03:59:23;94857.97;;;9.02;100.00
7182;BME280;3632;42.724;23.298;2024-02-26T04:01:50;94820.13;;;8.45;100.00
7182;BME280;3632;42.724;23.298;2024-02-26T04:04:18;94867.81;;;8.52;100.00
7182;BME280;3632;42.724;23.298;2024-02-26T04:06:45;94864.25;;;8.44;100.00
7182;BME280;3632;42.724;23.298;2024-02-26T04:09:13;94857.50;;;8.54;100.00
7182;BME280;3632;42.724;23.298;2024-02-26T04:11:39;94759.16;;;7.79;100.00
7182;BME280;3632;42.724;23.298;2024-02-26T04:14:08;94854.66;;;8.47;100.00
7182;BME280;3632;42.724;23.298;2024-02-26T04:16:37;94855.09;;;8.41;100.00
7182;BME280;3632;42.724;23.298;2024-02-26T04:19:03;94853.72;;;8.59;100.00
7182;BME280;3632;42.724;23.298;2024-02-26T04:21:31;94758.31;;;7.90;100.00
7182;BME280;3632;42.724;23.298;2024-02-26T04:23:58;94847.28;;;8.44;100.00
7182;BME280;3632;42.724;23.298;2024-02-26T04:26:27;94822.34;;;8.38;100.00
7182;BME280;3632;42.724;23.298;2024-02-26T04:28:53;94832.25;;;8.19;100.00
7182;BME280;3632;42.724;23.298;2024-02-26T04:31:20;94852.25;;;8.35;100.00
7182;BME280;3632;42.724;23.298;2024-02-26T04:33:47;94857.41;;;8.33;100.00
7182;BME280;3632;42.724;23.298;2024-02-26T04:36:14;94800.19;;;8.29;100.00
7182;BME280;3632;42.724;23.298;2024-02-26T04:38:42;94801.91;;;8.40;100.00
7182;BME280;3632;42.724;23.298;2024-02-26T04:41:09;94854.38;;;8.73;100.00
7182;BME280;3632;42.724;23.298;2024-02-26T04:43:36;94835.50;;;8.32;100.00
7182;BME280;3632;42.724;23.298;2024-02-26T04:46:06;94849.44;;;8.60;100.00
7182;BME280;3632;42.724;23.298;2024-02-26T04:48:34;94818.19;;;8.37;100.00
7182;BME280;3632;42.724;23.298;2024-02-26T04:51:01;94860.97;;;8.64;100.00
7182;BME280;3632;42.724;23.298;2024-02-26T04:53:28;94866.28;;;8.61;100.00
7182;BME280;3632;42.724;23.298;2024-02-26T04:55:56;94862.47;;;8.66;100.00
7182;BME280;3632;42.724;23.298;2024-02-26T04:58:22;94860.56;;;8.91;100.00
7182;BME280;3632;42.724;23.298;2024-02-26T05:00:49;94866.41;;;9.02;100.00
7182;BME280;3632;42.724;23.298;2024-02-26T05:03:16;94770.81;;;8.58;100.00
7182;BME280;3632;42.724;23.298;2024-02-26T05:05:43;94872.28;;;9.35;100.00
7182;BME280;3632;42.724;23.298;2024-02-26T05:08:10;94825.00;;;8.91;100.00
7182;BME280;3632;42.724;23.298;2024-02-26T05:10:37;94876.97;;;9.50;100.00
7182;BME280;3632;42.724;23.298;2024-02-26T05:13:07;94880.44;;;9.49;100.00
7182;BME280;3632;42.724;23.298;2024-02-26T05:15:34;94884.91;;;9.57;100.00
7182;BME280;3632;42.724;23.298;2024-02-26T05:18:01;94884.56;;;9.61;100.00
7182;BME280;3632;42.724;23.298;2024-02-26T05:20:27;94882.88;;;9.72;100.00
7182;BME280;3632;42.724;23.298;2024-02-26T05:22:54;94882.38;;;9.57;100.00
7182;BME280;3632;42.724;23.298;2024-02-26T05:25:21;94897.19;;;9.52;100.00
7182;BME280;3632;42.724;23.298;2024-02-26T05:27:48;94799.50;;;8.38;100.00
7182;BME280;3632;42.724;23.298;2024-02-26T05:30:16;94841.81;;;8.49;100.00
7182;BME280;3632;42.724;23.298;2024-02-26T05:32:43;94906.72;;;9.07;100.00
7182;BME280;3632;42.724;23.298;2024-02-26T05:35:09;94904.13;;;8.75;100.00
7182;BME280;3632;42.724;23.298;2024-02-26T05:37:36;94915.59;;;8.58;100.00
7182;BME280;3632;42.724;23.298;2024-02-26T05:40:04;94919.94;;;8.79;100.00
7182;BME280;3632;42.724;23.298;2024-02-26T05:42:31;94944.88;;;9.07;100.00
7182;BME280;3632;42.724;23.298;2024-02-26T05:44:58;94857.66;;;8.52;100.00
7182;BME280;3632;42.724;23.298;2024-02-26T05:47:32;94921.19;;;9.06;100.00
7182;BME280;3632;42.724;23.298;2024-02-26T05:49:58;94908.97;;;9.32;100.00
7182;BME280;3632;42.724;23.298;2024-02-26T05:52:26;94917.59;;;9.41;100.00
7182;BME280;3632;42.724;23.298;2024-02-26T05:54:53;94913.38;;;9.51;100.00
7182;BME280;3632;42.724;23.298;2024-02-26T05:57:19;94913.72;;;9.57;100.00
7182;BME280;3632;42.724;23.298;2024-02-26T05:59:46;94908.44;;;9.70;100.00
7182;BME280;3632;42.724;23.298;2024-02-26T06:02:13;94914.97;;;9.84;100.00
7182;BME280;3632;42.724;23.298;2024-02-26T06:04:41;94915.63;;;9.86;100.00
7182;BME280;3632;42.724;23.298;2024-02-26T06:07:07;94930.44;;;9.71;100.00
7182;BME280;3632;42.724;23.298;2024-02-26T06:09:34;94754.34;;;8.42;100.00
7182;BME280;3632;42.724;23.298;2024-02-26T06:12:01;94923.53;;;9.62;100.00
7182;BME280;3632;42.724;23.298;2024-02-26T06:14:28;94866.84;;;9.39;100.00
7182;BME280;3632;42.724;23.298;2024-02-26T06:16:54;94930.28;;;9.73;100.00
7182;BME280;3632;42.724;23.298;2024-02-26T06:19:21;94892.47;;;9.47;100.00
7182;BME280;3632;42.724;23.298;2024-02-26T06:21:49;94879.84;;;9.25;100.00
7182;BME280;3632;42.724;23.298;2024-02-26T06:24:16;94930.97;;;9.75;100.00
7182;BME280;3632;42.724;23.298;2024-02-26T06:26:43;94927.88;;;9.92;100.00
7182;BME280;3632;42.724;23.298;2024-02-26T06:29:09;94936.25;;;10.03;100.00
7182;BME280;3632;42.724;23.298;2024-02-26T06:31:36;94942.97;;;10.04;100.00
7182;BME280;3632;42.724;23.298;2024-02-26T06:34:03;94935.63;;;10.11;100.00
7182;BME280;3632;42.724;23.298;2024-02-26T06:36:30;94926.59;;;10.18;100.00
7182;BME280;3632;42.724;23.298;2024-02-26T06:38:59;94935.34;;;10.25;100.00
7182;BME280;3632;42.724;23.298;2024-02-26T06:41:26;94927.44;;;10.28;100.00
7182;BME280;3632;42.724;23.298;2024-02-26T06:43:55;94895.25;;;10.06;100.00
7182;BME280;3632;42.724;23.298;2024-02-26T06:46:22;94911.19;;;10.20;100.00
7182;BME280;3632;42.724;23.298;2024-02-26T06:48:51;94925.59;;;10.61;100.00
7182;BME280;3632;42.724;23.298;2024-02-26T06:51:18;94822.28;;;9.86;100.00
7182;BME280;3632;42.724;23.298;2024-02-26T06:53:45;94938.22;;;10.72;100.00
7182;BME280;3632;42.724;23.298;2024-02-26T06:56:13;94941.31;;;10.75;100.00
7182;BME280;3632;42.724;23.298;2024-02-26T06:58:40;94939.00;;;10.63;100.00
7182;BME280;3632;42.724;23.298;2024-02-26T07:01:07;94941.31;;;10.45;100.00
7182;BME280;3632;42.724;23.298;2024-02-26T07:03:33;94934.03;;;10.31;100.00
7182;BME280;3632;42.724;23.298;2024-02-26T07:06:00;94948.38;;;10.62;100.00
7182;BME280;3632;42.724;23.298;2024-02-26T07:08:27;94938.78;;;10.75;100.00
7182;BME280;3632;42.724;23.298;2024-02-26T07:10:53;94937.97;;;10.44;100.00
7182;BME280;3632;42.724;23.298;2024-02-26T07:13:21;94943.31;;;10.72;100.00
7182;BME280;3632;42.724;23.298;2024-02-26T07:15:48;94883.53;;;10.15;100.00
7182;BME280;3632;42.724;23.298;2024-02-26T07:18:15;94756.97;;;9.04;100.00
7182;BME280;3632;42.724;23.298;2024-02-26T07:20:42;94946.16;;;9.97;100.00
7182;BME280;3632;42.724;23.298;2024-02-26T07:23:09;94950.34;;;9.87;100.00
7182;BME280;3632;42.724;23.298;2024-02-26T07:25:35;94957.81;;;9.79;100.00
7182;BME280;3632;42.724;23.298;2024-02-26T07:28:02;94850.56;;;9.10;100.00
7182;BME280;3632;42.724;23.298;2024-02-26T07:30:31;94955.19;;;9.69;100.00
7182;BME280;3632;42.724;23.298;2024-02-26T07:32:57;94946.72;;;9.69;100.00
7182;BME280;3632;42.724;23.298;2024-02-26T07:35:24;94784.34;;;8.48;100.00
7182;BME280;3632;42.724;23.298;2024-02-26T07:37:52;94891.41;;;9.29;100.00
7182;BME280;3632;42.724;23.298;2024-02-26T07:40:19;94804.31;;;8.84;100.00
7182;BME280;3632;42.724;23.298;2024-02-26T07:42:46;94948.00;;;9.95;100.00
7182;BME280;3632;42.724;23.298;2024-02-26T07:45:13;94959.34;;;10.53;100.00
7182;BME280;3632;42.724;23.298;2024-02-26T07:47:42;94944.00;;;10.02;100.00
7182;BME280;3632;42.724;23.298;2024-02-26T07:50:09;94949.44;;;10.08;100.00
7182;BME280;3632;42.724;23.298;2024-02-26T07:52:37;94862.88;;;9.46;100.00
7182;BME280;3632;42.724;23.298;2024-02-26T07:55:04;94947.75;;;9.98;100.00
7182;BME280;3632;42.724;23.298;2024-02-26T07:57:32;94813.69;;;9.36;100.00
7182;BME280;3632;42.724;23.298;2024-02-26T07:59:59;94941.59;;;10.42;100.00
7182;BME280;3632;42.724;23.298;2024-02-26T08:02:25;94947.34;;;10.74;100.00
7182;BME280;3632;42.724;23.298;2024-02-26T08:04:53;94939.16;;;10.40;100.00
7182;BME280;3632;42.724;23.298;2024-02-26T08:07:20;94944.25;;;10.40;100.00
7182;BME280;3632;42.724;23.298;2024-02-26T08:09:47;94944.59;;;10.26;100.00
7182;BME280;3632;42.724;23.298;2024-02-26T08:12:14;94924.16;;;9.96;100.00
7182;BME280;3632;42.724;23.298;2024-02-26T08:14:42;94951.06;;;10.61;100.00
7182;BME280;3632;42.724;23.298;2024-02-26T08:17:09;94941.13;;;10.58;100.00
7182;BME280;3632;42.724;23.298;2024-02-26T08:19:36;94945.22;;;10.39;100.00
7182;BME280;3632;42.724;23.298;2024-02-26T08:22:04;94948.03;;;10.46;100.00
7182;BME280;3632;42.724;23.298;2024-02-26T08:24:31;94933.03;;;10.52;100.00
7182;BME280;3632;42.724;23.298;2024-02-26T08:26:57;94887.53;;;10.38;100.00
7182;BME280;3632;42.724;23.298;2024-02-26T08:29:24;94931.72;;;11.08;100.00
7182;BME280;3632;42.724;23.298;2024-02-26T08:31:51;94926.84;;;11.44;99.24
7182;BME280;3632;42.724;23.298;2024-02-26T08:34:18;94932.78;;;11.74;97.76
7182;BME280;3632;42.724;23.298;2024-02-26T08:36:45;94940.56;;;11.92;96.58
7182;BME280;3632;42.724;23.298;2024-02-26T08:39:13;94563.00;;;9.43;93.55
7182;BME280;3632;42.724;23.298;2024-02-26T08:41:39;94931.16;;;11.73;94.48
7182;BME280;3632;42.724;23.298;2024-02-26T08:44:06;94942.41;;;11.61;97.39
7182;BME280;3632;42.724;23.298;2024-02-26T08:46:33;94929.78;;;11.59;98.13
7182;BME280;3632;42.724;23.298;2024-02-26T08:48:59;94741.53;;;10.28;97.50
7182;BME280;3632;42.724;23.298;2024-02-26T08:51:26;94841.41;;;11.29;97.92
7182;BME280;3632;42.724;23.298;2024-02-26T08:53:53;94927.84;;;12.28;95.44
7182;BME280;3632;42.724;23.298;2024-02-26T08:56:22;94923.22;;;12.51;94.00
7182;BME280;3632;42.724;23.298;2024-02-26T08:58:48;94928.72;;;12.83;91.56
7182;BME280;3632;42.724;23.298;2024-02-26T09:01:18;94926.44;;;13.08;89.79
7182;BME280;3632;42.724;23.298;2024-02-26T09:03:44;94922.94;;;13.09;88.80
7182;BME280;3632;42.724;23.298;2024-02-26T09:06:11;94918.91;;;13.06;88.78
7182;BME280;3632;42.724;23.298;2024-02-26T09:08:40;94913.78;;;12.79;93.84
7182;BME280;3632;42.724;23.298;2024-02-26T09:11:07;94917.19;;;12.70;97.97
7182;BME280;3632;42.724;23.298;2024-02-26T09:13:37;94915.38;;;13.07;95.51
7182;BME280;3632;42.724;23.298;2024-02-26T09:16:04;94914.44;;;13.36;92.53
7182;BME280;3632;42.724;23.298;2024-02-26T09:18:31;94870.56;;;13.31;90.09
7182;BME280;3632;42.724;23.298;2024-02-26T09:20:58;94906.41;;;13.66;90.49
7182;BME280;3632;42.724;23.298;2024-02-26T09:23:24;94912.03;;;13.69;89.41
7182;BME280;3632;42.724;23.298;2024-02-26T09:25:51;94906.94;;;13.95;89.61
7182;BME280;3632;42.724;23.298;2024-02-26T09:28:18;94903.28;;;13.98;88.83
7182;BME280;3632;42.724;23.298;2024-02-26T09:30:46;94853.66;;;13.99;86.88
7182;BME280;3632;42.724;23.298;2024-02-26T09:33:14;94897.63;;;14.38;86.29
7182;BME280;3632;42.724;23.298;2024-02-26T09:35:41;94894.81;;;14.49;85.50
7182;BME280;3632;42.724;23.298;2024-02-26T09:38:08;94806.03;;;14.22;84.61
7182;BME280;3632;42.724;23.298;2024-02-26T09:40:34;94896.06;;;14.79;83.24
7182;BME280;3632;42.724;23.298;2024-02-26T09:43:04;94895.00;;;14.97;82.96
7182;BME280;3632;42.724;23.298;2024-02-26T09:45:33;94894.66;;;14.84;83.15
7182;BME280;3632;42.724;23.298;2024-02-26T09:48:02;94894.50;;;14.94;80.96
7182;BME280;3632;42.724;23.298;2024-02-26T09:50:31;94883.97;;;15.13;80.29
7182;BME280;3632;42.724;23.298;2024-02-26T09:52:59;94881.44;;;15.21;77.73
7182;BME280;3632;42.724;23.298;2024-02-26T09:55:28;94880.75;;;15.19;79.56
7182;BME280;3632;42.724;23.298;2024-02-26T09:57:55;94879.38;;;15.49;77.77
7182;BME280;3632;42.724;23.298;2024-02-26T10:00:23;94887.16;;;15.15;73.81
7182;BME280;3632;42.724;23.298;2024-02-26T10:02:52;94844.44;;;14.40;73.51
7182;BME280;3632;42.724;23.298;2024-02-26T10:05:21;94878.69;;;14.64;74.93
7182;BME280;3632;42.724;23.298;2024-02-26T10:07:48;94883.16;;;15.13;76.88
7182;BME280;3632;42.724;23.298;2024-02-26T10:10:15;94885.34;;;14.91;72.83
7182;BME280;3632;42.724;23.298;2024-02-26T10:12:41;94784.19;;;14.44;73.91
7182;BME280;3632;42.724;23.298;2024-02-26T10:15:09;94876.50;;;15.44;74.14
7182;BME280;3632;42.724;23.298;2024-02-26T10:17:36;94871.34;;;15.36;70.34
7182;BME280;3632;42.724;23.298;2024-02-26T10:20:12;94861.88;;;15.44;72.17
7182;BME280;3632;42.724;23.298;2024-02-26T10:22:41;94862.72;;;15.77;72.00
7182;BME280;3632;42.724;23.298;2024-02-26T10:25:08;94744.22;;;15.16;71.33
7182;BME280;3632;42.724;23.298;2024-02-26T10:27:35;94780.16;;;14.99;68.07
7182;BME280;3632;42.724;23.298;2024-02-26T10:30:03;94858.50;;;15.36;69.67
7182;BME280;3632;42.724;23.298;2024-02-26T10:32:30;94809.34;;;14.90;70.17
7182;BME280;3632;42.724;23.298;2024-02-26T10:34:57;94850.47;;;15.39;69.01
7182;BME280;3632;42.724;23.298;2024-02-26T10:37:24;94840.81;;;15.25;68.45
7182;BME280;3632;42.724;23.298;2024-02-26T10:39:53;94843.38;;;15.17;67.11
7182;BME280;3632;42.724;23.298;2024-02-26T10:42:19;94838.59;;;15.30;67.50
7182;BME280;3632;42.724;23.298;2024-02-26T10:44:46;94841.97;;;15.30;69.85
7182;BME280;3632;42.724;23.298;2024-02-26T10:47:14;94647.69;;;14.58;69.10
7182;BME280;3632;42.724;23.298;2024-02-26T10:49:45;94837.81;;;15.94;67.28
7182;BME280;3632;42.724;23.298;2024-02-26T10:52:13;94832.53;;;15.63;63.68
7182;BME280;3632;42.724;23.298;2024-02-26T10:54:41;94832.53;;;15.55;66.43
7182;BME280;3632;42.724;23.298;2024-02-26T10:57:11;94840.84;;;15.33;64.19
7182;BME280;3632;42.724;23.298;2024-02-26T10:59:39;94791.22;;;15.00;65.25
7182;BME280;3632;42.724;23.298;2024-02-26T11:02:09;94828.69;;;15.59;65.12
7182;BME280;3632;42.724;23.298;2024-02-26T11:04:37;94826.75;;;15.77;65.95
7182;BME280;3632;42.724;23.298;2024-02-26T11:07:05;94806.81;;;15.79;64.56
7182;BME280;3632;42.724;23.298;2024-02-26T11:09:33;94833.94;;;15.98;65.79
7182;BME280;3632;42.724;23.298;2024-02-26T11:12:02;94775.69;;;15.82;64.59
7182;BME280;3632;42.724;23.298;2024-02-26T11:14:35;94794.94;;;15.70;63.92
7182;BME280;3632;42.724;23.298;2024-02-26T11:17:02;94835.28;;;15.70;63.49
7182;BME280;3632;42.724;23.298;2024-02-26T11:19:30;94829.44;;;15.92;64.41
7182;BME280;3632;42.724;23.298;2024-02-26T11:21:59;94817.78;;;15.57;63.42
7182;BME280;3632;42.724;23.298;2024-02-26T11:24:26;94737.97;;;15.50;62.69
7182;BME280;3632;42.724;23.298;2024-02-26T11:26:57;94821.09;;;15.90;61.80
7182;BME280;3632;42.724;23.298;2024-02-26T11:29:34;94664.53;;;14.93;60.90
7182;BME280;3632;42.724;23.298;2024-02-26T11:32:06;94811.31;;;15.93;61.70
7182;BME280;3632;42.724;23.298;2024-02-26T11:34:33;94806.75;;;16.20;61.37
7182;BME280;3632;42.724;23.298;2024-02-26T11:37:09;94809.50;;;16.02;60.77
7182;BME280;3632;42.724;23.298;2024-02-26T11:39:40;94798.81;;;15.82;60.89
7182;BME280;3632;42.724;23.298;2024-02-26T11:42:08;94711.50;;;15.34;60.99
7182;BME280;3632;42.724;23.298;2024-02-26T11:44:36;94714.50;;;15.78;61.51
7182;BME280;3632;42.724;23.298;2024-02-26T11:47:14;94798.06;;;16.21;58.97
7182;BME280;3632;42.724;23.298;2024-02-26T11:49:44;94796.22;;;15.90;60.46
7182;BME280;3632;42.724;23.298;2024-02-26T11:52:13;94796.63;;;16.10;60.12
7182;BME280;3632;42.724;23.298;2024-02-26T11:54:44;94753.78;;;16.03;60.28
7182;BME280;3632;42.724;23.298;2024-02-26T11:57:24;94747.53;;;16.36;59.29
7182;BME280;3632;42.724;23.298;2024-02-26T11:59:51;94784.84;;;16.32;60.41
7182;BME280;3632;42.724;23.298;2024-02-26T12:02:43;94778.31;;;16.60;59.51
7182;BME280;3632;42.724;23.298;2024-02-26T12:05:12;94789.44;;;16.44;60.91
7182;BME280;3632;42.724;23.298;2024-02-26T12:07:40;94784.84;;;15.77;59.71
7182;BME280;3632;42.724;23.298;2024-02-26T12:10:32;94792.22;;;16.35;60.11
7182;BME280;3632;42.724;23.298;2024-02-26T12:13:05;94754.06;;;16.16;60.40
7182;BME280;3632;42.724;23.298;2024-02-26T12:15:33;94763.00;;;16.28;60.40
7182;BME280;3632;42.724;23.298;2024-02-26T12:18:06;94794.78;;;16.35;58.83
7182;BME280;3632;42.724;23.298;2024-02-26T12:20:33;94787.53;;;15.99;59.26
7182;BME280;3632;42.724;23.298;2024-02-26T12:23:01;94783.91;;;16.17;59.46
7182;BME280;3632;42.724;23.298;2024-02-26T12:25:30;94798.75;;;15.98;59.60
7182;BME280;3632;42.724;23.298;2024-02-26T12:27:57;94795.53;;;15.96;59.76
7182;BME280;3632;42.724;23.298;2024-02-26T12:30:24;94760.91;;;15.76;59.15
7182;BME280;3632;42.724;23.298;2024-02-26T12:32:53;94796.78;;;16.09;59.02
7182;BME280;3632;42.724;23.298;2024-02-26T12:35:23;94801.78;;;16.10;57.86
7182;BME280;3632;42.724;23.298;2024-02-26T12:37:52;94786.44;;;16.33;57.83
7182;BME280;3632;42.724;23.298;2024-02-26T12:40:20;94771.34;;;16.69;55.65
7182;BME280;3632;42.724;23.298;2024-02-26T12:42:47;94742.75;;;16.56;55.25
7182;BME280;3632;42.724;23.298;2024-02-26T12:45:15;94791.50;;;17.11;54.97
7182;BME280;3632;42.724;23.298;2024-02-26T12:47:42;94787.91;;;17.20;54.22
7182;BME280;3632;42.724;23.298;2024-02-26T12:50:10;94749.63;;;17.17;54.00
7182;BME280;3632;42.724;23.298;2024-02-26T12:52:39;94791.06;;;17.90;52.28
7182;BME280;3632;42.724;23.298;2024-02-26T12:55:07;94779.78;;;18.86;50.47
7182;BME280;3632;42.724;23.298;2024-02-26T12:57:36;94719.44;;;18.36;49.55
7182;BME280;3632;42.724;23.298;2024-02-26T13:00:05;94762.94;;;18.39;50.55
7182;BME280;3632;42.724;23.298;2024-02-26T13:02:35;94779.31;;;18.97;51.25
7182;BME280;3632;42.724;23.298;2024-02-26T13:05:03;94772.38;;;19.61;48.21
7182;BME280;3632;42.724;23.298;2024-02-26T13:07:30;94790.53;;;19.95;47.27
7182;BME280;3632;42.724;23.298;2024-02-26T13:09:58;94756.78;;;19.76;46.46
7182;BME280;3632;42.724;23.298;2024-02-26T13:12:26;94772.31;;;19.12;46.42